Portada
METAR-TAF:

METAR-TAF

Aeropuertos :

Vamdrup

Kolding, Dinamarca

latitud: 55-26N, longitud: 009-20E, altitud: 44 m

Observación

El informe se hizo hace 23 minutos, a las 00:20 UTC
Viento 25 kt del suroeste con ráfagas de 35 kt
Temperatura 7°C
Humedad 100%
Presión 1000 hPa

METAR: EKVD 060020Z AUTO 23025G35KT //// ///////// 07/07 Q1000

Hora: 01:43 (00:43 UTC)

Pronóstico

El informe se hizo hace 12 horas y 43 minutos, a las 12:00 UTC
Pronóstico válido del 05 a las 12 UTC al 05 a las 17 UTC
Viento 15 kt del oeste-suroeste
Visibilidad 10 km o más
Cielo nuboso a una altura de 2000 ft
Temporalmente
del 05 a las 12 UTC al 05 a las 17 UTC
Viento 15 kt del suroeste con ráfagas de 25 kt
Cielo nuboso a una altura de 1200 ft

TAF: EKVD 051200Z 0512/0517 24015KT 9999 BKN020 TEMPO 0512/0517 23015G25KT BKN012

Observaciones y pronósticos meteorológicos de más de 4000 aeropuertos (mensajes METAR y TAF).

Los puntos amarillos y rojos representan las estaciones disponibles.

Ponga el ratón en el punto deseado para ver el nombre de la estación.

Haga clic para ver las observaciones y los pronósticos meteorológicos.

Para cambiar el mapa : haga clic en los botones verdes con una cruz de color negro para hacer un zoom, en el botón verde con un guión para alejar o en las flechas verdes para mapas adyacentes.


METAR-TAF: